Time;durP1;ratioP1;P1;durP2;ratioP2;P2;SDS_P1;SDS_P2;PMS_P1;PMS_P2;Temp;Humidity;BMP_temperature;BMP_pressure;BME280_temperature;BME280_humidity;BME280_pressure;Samples;Min_cycle;Max_cycle;Signal;HPM_P1;HPM_P2
2021/11/21 00:01:59;;;;;;;31.77;28.98;;;6.70;93.90;;;;;;5006860;28;20202;-71
2021/11/21 00:04:28;;;;;;;32.33;29.58;;;6.70;93.10;;;;;;5007773;28;20613;-72
2021/11/21 00:06:55;;;;;;;30.80;28.30;;;6.70;92.70;;;;;;5008530;28;20273;-71
2021/11/21 00:09:22;;;;;;;30.65;28.02;;;6.70;92.10;;;;;;5008872;28;20202;-71
2021/11/21 00:11:49;;;;;;;31.63;29.02;;;6.70;93.60;;;;;;4995333;28;20297;-71
2021/11/21 00:14:16;;;;;;;30.08;27.58;;;6.90;92.10;;;;;;5003149;28;20225;-71
2021/11/21 00:16:43;;;;;;;30.58;28.05;;;6.90;90.90;;;;;;5007603;28;20205;-71
2021/11/21 00:19:10;;;;;;;30.90;28.38;;;6.90;89.70;;;;;;5007220;28;20241;-72
2021/11/21 00:21:39;;;;;;;31.58;29.08;;;6.90;89.90;;;;;;5010528;28;20256;-72
2021/11/21 00:24:06;;;;;;;31.75;29.25;;;6.80;90.20;;;;;;5007794;28;20592;-71
2021/11/21 00:26:33;;;;;;;31.70;29.30;;;6.80;90.00;;;;;;5007223;28;20297;-72
2021/11/21 00:29:00;;;;;;;30.20;27.75;;;6.70;89.60;;;;;;5008653;28;20198;-71
2021/11/21 00:31:27;;;;;;;29.95;27.67;;;6.90;89.10;;;;;;4997732;28;20806;-71
2021/11/21 00:33:54;;;;;;;31.63;29.05;;;6.70;89.70;;;;;;5005035;28;20229;-72
2021/11/21 00:36:21;;;;;;;31.40;28.92;;;6.80;89.30;;;;;;5006736;28;20202;-71
2021/11/21 00:38:49;;;;;;;30.25;27.85;;;6.80;88.70;;;;;;5008833;28;20230;-71
2021/11/21 00:41:16;;;;;;;30.52;27.95;;;6.70;89.50;;;;;;5003349;28;20285;-71
2021/11/21 00:43:43;;;;;;;29.88;27.58;;;6.60;89.70;;;;;;5004273;28;20301;-71
2021/11/21 00:46:10;;;;;;;30.00;27.52;;;6.70;89.30;;;;;;5006687;28;20230;-71
2021/11/21 00:48:38;;;;;;;30.13;27.65;;;6.60;91.60;;;;;;5005641;28;20332;-71
2021/11/21 00:51:06;;;;;;;29.20;26.80;;;6.70;90.30;;;;;;5008217;28;20213;-71
2021/11/21 00:53:35;;;;;;;32.10;28.92;;;6.60;90.00;;;;;;5008461;28;20667;-71
2021/11/21 00:56:04;;;;;;;30.58;28.20;;;6.60;89.90;;;;;;5005476;28;20299;-72
2021/11/21 00:58:33;;;;;;;29.75;27.45;;;6.50;90.60;;;;;;5007742;28;20282;-71
2021/11/21 01:01:01;;;;;;;30.08;27.45;;;6.40;90.60;;;;;;5007345;28;20280;-72
2021/11/21 01:03:28;;;;;;;29.77;27.48;;;6.40;92.00;;;;;;5006623;28;20831;-71
2021/11/21 01:05:57;;;;;;;30.15;27.75;;;6.50;93.20;;;;;;5006838;28;20202;-72
2021/11/21 01:08:25;;;;;;;29.25;26.92;;;6.60;91.40;;;;;;5005771;28;20235;-72
2021/11/21 01:10:55;;;;;;;208.68;41.38;;;6.50;92.10;;;;;;5005332;28;20262;-72
2021/11/21 01:13:24;;;;;;;27.50;25.45;;;6.60;91.20;;;;;;5006643;28;20801;-72
2021/11/21 01:15:52;;;;;;;25.63;23.92;;;6.50;89.70;;;;;;5003194;28;20286;-72
2021/11/21 01:18:19;;;;;;;27.20;25.10;;;6.50;89.80;;;;;;5008643;28;20301;-72
2021/11/21 01:20:47;;;;;;;27.90;25.83;;;6.40;89.50;;;;;;5004111;28;20202;-72
2021/11/21 01:23:15;;;;;;;27.83;25.77;;;6.20;90.70;;;;;;5007790;28;20317;-72
2021/11/21 01:25:44;;;;;;;26.40;24.60;;;6.30;90.20;;;;;;5000842;28;20633;-72
2021/11/21 01:28:11;;;;;;;25.35;23.55;;;6.50;89.20;;;;;;5007217;28;20571;-72
2021/11/21 01:30:40;;;;;;;25.42;23.73;;;6.40;89.00;;;;;;5002127;28;20590;-71
2021/11/21 01:33:07;;;;;;;24.30;22.67;;;6.30;87.90;;;;;;5004859;28;20308;-71
2021/11/21 01:35:34;;;;;;;25.08;23.38;;;6.00;88.80;;;;;;5004334;28;20292;-71
2021/11/21 01:38:04;;;;;;;24.17;22.58;;;5.90;89.40;;;;;;5008322;28;20289;-71
2021/11/21 01:40:31;;;;;;;25.48;23.70;;;5.80;89.70;;;;;;5002850;28;20204;-71
2021/11/21 01:42:59;;;;;;;24.15;22.55;;;5.70;90.10;;;;;;5004814;28;20320;-71
2021/11/21 01:45:26;;;;;;;26.10;24.23;;;5.50;91.10;;;;;;5001113;28;20634;-71
2021/11/21 01:47:55;;;;;;;24.33;22.67;;;5.40;91.50;;;;;;5007995;28;20313;-72
2021/11/21 01:50:26;;;;;;;24.15;22.48;;;5.50;91.50;;;;;;5006004;28;20638;-71
2021/11/21 01:52:53;;;;;;;25.38;23.63;;;5.60;91.00;;;;;;5007000;28;20655;-72
2021/11/21 01:55:21;;;;;;;25.10;23.40;;;5.50;91.00;;;;;;5005718;28;20236;-71
2021/11/21 01:57:48;;;;;;;24.88;23.08;;;5.30;91.80;;;;;;5004039;28;20668;-71
2021/11/21 02:00:16;;;;;;;24.70;22.85;;;5.20;92.60;;;;;;5007095;28;20274;-71
2021/11/21 02:02:45;;;;;;;61.72;25.23;;;5.20;93.40;;;;;;5008699;28;20229;-72
2021/11/21 02:05:13;;;;;;;24.90;23.20;;;5.30;93.40;;;;;;5006185;28;20210;-71
2021/11/21 02:07:42;;;;;;;24.08;22.45;;;5.40;93.40;;;;;;5007096;28;20198;-71
2021/11/21 02:10:12;;;;;;;25.02;23.33;;;5.50;92.60;;;;;;5003301;28;20202;-71
2021/11/21 02:12:39;;;;;;;23.10;21.60;;;5.70;92.20;;;;;;5004553;28;20221;-71
2021/11/21 02:15:10;;;;;;;24.30;22.70;;;5.60;91.80;;;;;;5004845;28;20289;-71
2021/11/21 02:17:37;;;;;;;23.25;21.83;;;5.70;91.60;;;;;;5007284;28;20200;-71
2021/11/21 02:20:05;;;;;;;25.30;23.42;;;5.70;92.10;;;;;;5002731;28;20279;-71
2021/11/21 02:22:34;;;;;;;23.48;21.95;;;5.70;91.70;;;;;;5003753;28;20209;-71
2021/11/21 02:25:01;;;;;;;26.42;23.90;;;5.80;91.30;;;;;;5003906;28;20474;-71
2021/11/21 02:27:30;;;;;;;24.77;23.17;;;5.80;91.40;;;;;;5002505;28;20304;-71
2021/11/21 02:29:58;;;;;;;24.85;23.15;;;5.90;91.00;;;;;;5001547;28;20667;-71
2021/11/21 02:32:25;;;;;;;765.33;96.03;;;5.90;90.00;;;;;;5000371;28;20292;-71
2021/11/21 02:34:52;;;;;;;24.25;22.55;;;5.80;93.40;;;;;;5004829;28;20269;-71
2021/11/21 02:37:19;;;;;;;24.15;22.65;;;5.60;93.00;;;;;;5005679;28;20287;-71
2021/11/21 02:39:47;;;;;;;23.40;21.80;;;5.60;92.60;;;;;;5006224;28;20564;-71
2021/11/21 02:42:27;;;;;;;23.70;22.10;;;5.60;92.10;;;;;;5004410;28;20288;-71
2021/11/21 02:44:54;;;;;;;23.08;21.55;;;5.70;92.20;;;;;;5004974;28;20268;-71
2021/11/21 02:47:21;;;;;;;25.15;22.52;;;5.70;93.60;;;;;;4999706;28;20679;-71
2021/11/21 02:49:48;;;;;;;22.17;20.77;;;5.70;95.00;;;;;;5006894;28;20205;-71
2021/11/21 02:52:15;;;;;;;22.35;20.95;;;5.80;93.40;;;;;;5003750;28;20256;-71
2021/11/21 02:54:51;;;;;;;22.77;21.27;;;5.80;92.50;;;;;;5005234;28;20531;-72
2021/11/21 02:57:19;;;;;;;536.83;71.07;;;5.90;91.40;;;;;;4993304;28;20403;-71
2021/11/21 02:59:47;;;;;;;23.67;21.98;;;5.80;95.20;;;;;;5003527;28;20285;-71
2021/11/21 03:02:14;;;;;;;22.67;21.30;;;5.70;94.20;;;;;;5000651;28;20205;-71
2021/11/21 03:04:43;;;;;;;22.50;21.10;;;5.70;92.90;;;;;;5004029;28;20297;-71
2021/11/21 03:07:10;;;;;;;21.95;20.60;;;5.70;92.20;;;;;;5005161;28;20921;-71
2021/11/21 03:09:37;;;;;;;23.25;21.75;;;5.60;91.70;;;;;;5006041;28;20281;-71
2021/11/21 03:12:07;;;;;;;22.83;21.42;;;5.60;90.80;;;;;;5000209;28;20293;-71
2021/11/21 03:14:34;;;;;;;22.95;21.55;;;5.60;90.00;;;;;;4998827;28;20280;-71
2021/11/21 03:17:01;;;;;;;54.05;23.85;;;5.50;92.60;;;;;;5001568;28;20237;-73
2021/11/21 03:19:29;;;;;;;678.65;87.80;;;5.50;95.50;;;;;;5007445;28;20293;-72
2021/11/21 03:21:56;;;;;;;171.43;31.40;;;5.50;96.60;;;;;;5008359;28;20277;-72
2021/11/21 03:24:23;;;;;;;22.35;20.90;;;5.60;95.10;;;;;;5008641;28;20284;-72
2021/11/21 03:26:50;;;;;;;22.35;20.85;;;5.50;95.80;;;;;;5004649;28;20705;-72
2021/11/21 03:29:18;;;;;;;21.42;20.13;;;5.60;94.70;;;;;;5007081;28;20241;-72
2021/11/21 03:31:45;;;;;;;23.70;22.10;;;5.60;93.00;;;;;;5007533;28;20194;-72
2021/11/21 03:34:12;;;;;;;24.85;23.25;;;5.60;92.60;;;;;;5008993;28;20790;-72
2021/11/21 03:36:39;;;;;;;23.83;22.23;;;5.60;92.20;;;;;;5009099;28;20202;-72
2021/11/21 03:39:08;;;;;;;26.27;24.48;;;5.60;91.90;;;;;;5010066;28;20679;-72
2021/11/21 03:41:36;;;;;;;23.63;22.13;;;5.70;91.70;;;;;;5008007;28;20198;-72
2021/11/21 03:44:03;;;;;;;32.55;23.60;;;5.60;91.30;;;;;;5002963;28;20640;-72
2021/11/21 03:46:32;;;;;;;24.63;23.00;;;5.60;91.10;;;;;;5005495;28;20304;-72
2021/11/21 03:48:59;;;;;;;24.33;22.83;;;5.50;92.60;;;;;;5008446;28;20281;-72
2021/11/21 03:51:26;;;;;;;23.85;22.30;;;5.60;90.40;;;;;;5008459;28;20205;-72
2021/11/21 03:53:53;;;;;;;24.55;22.83;;;5.50;90.30;;;;;;5001305;28;20339;-72
2021/11/21 03:56:20;;;;;;;23.95;22.35;;;5.50;90.10;;;;;;5008881;28;20532;-72
2021/11/21 03:58:47;;;;;;;23.75;22.25;;;5.30;90.10;;;;;;5007589;28;20285;-72
2021/11/21 04:01:14;;;;;;;24.15;22.40;;;5.10;90.70;;;;;;5008225;28;20289;-72
2021/11/21 04:03:43;;;;;;;23.90;22.40;;;4.90;91.20;;;;;;5006726;28;20297;-72
2021/11/21 04:06:10;;;;;;;23.52;22.02;;;4.70;92.20;;;;;;5008932;28;20202;-72
2021/11/21 04:08:38;;;;;;;22.77;21.38;;;4.70;92.20;;;;;;5007911;28;20229;-72
2021/11/21 04:11:06;;;;;;;24.85;23.05;;;4.70;92.70;;;;;;5008837;28;20373;-72
2021/11/21 04:13:33;;;;;;;22.92;21.52;;;4.80;92.60;;;;;;5006909;28;20309;-72
2021/11/21 04:16:00;;;;;;;24.33;22.67;;;4.80;92.40;;;;;;5007188;28;20230;-72
2021/11/21 04:18:27;;;;;;;24.65;22.88;;;4.90;92.40;;;;;;5007320;28;20229;-72
2021/11/21 04:20:55;;;;;;;22.63;21.17;;;5.00;92.30;;;;;;5007594;28;20284;-72
2021/11/21 04:23:24;;;;;;;24.00;22.40;;;5.00;91.40;;;;;;5005098;28;20222;-72
2021/11/21 04:25:51;;;;;;;23.02;21.50;;;4.90;91.40;;;;;;5009452;28;20296;-72
2021/11/21 04:28:18;;;;;;;24.30;22.73;;;4.90;91.20;;;;;;5008217;28;20654;-72
2021/11/21 04:30:45;;;;;;;23.33;21.83;;;4.90;91.20;;;;;;5008767;28;20240;-72
2021/11/21 04:33:12;;;;;;;23.90;22.35;;;4.90;91.30;;;;;;5006517;28;20275;-71
2021/11/21 04:35:39;;;;;;;23.25;21.75;;;4.80;91.40;;;;;;5009114;28;20273;-72
2021/11/21 04:38:07;;;;;;;23.80;22.20;;;4.80;91.70;;;;;;5008389;28;20206;-72
2021/11/21 04:40:34;;;;;;;23.30;21.80;;;4.80;92.10;;;;;;5002116;28;20234;-71
2021/11/21 04:43:02;;;;;;;22.58;21.17;;;4.70;92.60;;;;;;5007193;28;20283;-71
2021/11/21 04:45:29;;;;;;;23.60;22.08;;;4.80;92.00;;;;;;4999058;28;20281;-71
2021/11/21 04:47:56;;;;;;;22.70;21.35;;;4.80;92.20;;;;;;5007751;28;20734;-71
2021/11/21 04:50:23;;;;;;;23.45;21.95;;;4.80;92.10;;;;;;5009004;28;20198;-71
2021/11/21 04:52:50;;;;;;;24.48;22.77;;;4.80;92.10;;;;;;5006355;28;20250;-71
2021/11/21 04:55:19;;;;;;;23.55;22.05;;;4.90;91.80;;;;;;5008151;28;20301;-71
2021/11/21 04:57:46;;;;;;;23.77;22.25;;;4.90;91.50;;;;;;5007530;28;20202;-71
2021/11/21 05:00:17;;;;;;;23.83;22.33;;;4.80;91.60;;;;;;5012940;28;20240;-71
2021/11/21 05:02:45;;;;;;;22.02;20.70;;;4.90;91.10;;;;;;5006972;28;20245;-71
2021/11/21 05:05:12;;;;;;;21.98;20.58;;;4.80;90.80;;;;;;5006978;28;20634;-71
2021/11/21 05:07:39;;;;;;;22.38;20.88;;;4.80;90.50;;;;;;5004784;28;20206;-71
2021/11/21 05:10:08;;;;;;;21.73;20.42;;;4.60;90.90;;;;;;5007516;28;21235;-71
2021/11/21 05:12:37;;;;;;;22.73;21.33;;;4.60;91.60;;;;;;5004840;28;20635;-71
2021/11/21 05:15:04;;;;;;;22.88;21.38;;;4.50;92.20;;;;;;5006185;28;20249;-71
2021/11/21 05:17:31;;;;;;;23.80;21.92;;;4.40;92.10;;;;;;4999989;28;20242;-71
2021/11/21 05:19:59;;;;;;;22.58;20.63;;;4.50;92.10;;;;;;5004354;28;20229;-71
2021/11/21 05:22:27;;;;;;;1999.90;608.13;;;4.50;92.90;;;;;;5007662;28;20202;-71
2021/11/21 05:24:54;;;;;;;21.25;19.85;;;4.50;94.40;;;;;;5005425;28;20190;-71
2021/11/21 05:27:23;;;;;;;189.77;39.17;;;4.50;96.60;;;;;;5002325;28;20209;-71
2021/11/21 05:29:52;;;;;;;34.70;21.70;;;4.60;98.40;;;;;;5001956;28;20252;-71
2021/11/21 05:32:19;;;;;;;22.45;21.05;;;4.60;97.50;;;;;;5006460;28;20202;-71
2021/11/21 05:34:46;;;;;;;22.10;20.50;;;4.60;97.00;;;;;;5005031;28;20603;-71
2021/11/21 05:37:13;;;;;;;23.23;21.63;;;4.70;96.70;;;;;;5005294;28;20323;-71
2021/11/21 05:39:41;;;;;;;23.85;21.50;;;4.80;97.30;;;;;;5006827;28;20285;-70
2021/11/21 05:42:08;;;;;;;1242.97;156.10;;;4.90;95.30;;;;;;5004987;28;20314;-72
2021/11/21 05:44:35;;;;;;;1999.90;376.63;;;4.80;96.60;;;;;;5006426;28;20305;-72
2021/11/21 05:47:04;;;;;;;1999.90;325.45;;;4.80;96.40;;;;;;5001178;28;20237;-72
2021/11/21 05:49:31;;;;;;;22.27;20.58;;;4.90;99.90;;;;;;5007232;28;20198;-71
2021/11/21 05:51:58;;;;;;;21.42;19.83;;;4.90;99.10;;;;;;5006574;28;20203;-71
2021/11/21 05:54:25;;;;;;;20.25;18.75;;;4.90;97.20;;;;;;5005714;28;20301;-72
2021/11/21 05:56:52;;;;;;;22.10;20.60;;;4.90;95.90;;;;;;5005360;28;20650;-71
2021/11/21 05:59:19;;;;;;;21.15;19.85;;;4.80;94.00;;;;;;5007343;28;20277;-71
2021/11/21 06:01:46;;;;;;;20.70;19.40;;;4.70;92.40;;;;;;5003433;28;20238;-71
2021/11/21 06:04:14;;;;;;;22.98;21.38;;;4.60;93.10;;;;;;5006882;28;20317;-72
2021/11/21 06:06:42;;;;;;;23.23;21.02;;;4.60;93.20;;;;;;5006493;28;20294;-71
2021/11/21 06:09:08;;;;;;;296.60;43.85;;;4.70;93.40;;;;;;5006842;28;20297;-72
2021/11/21 06:11:35;;;;;;;21.50;20.10;;;4.70;95.80;;;;;;5005651;28;20317;-71
2021/11/21 06:14:02;;;;;;;382.27;49.72;;;4.70;95.70;;;;;;5003767;28;20222;-72
2021/11/21 06:16:29;;;;;;;21.55;20.05;;;4.80;94.10;;;;;;5006842;28;20711;-72
2021/11/21 06:18:56;;;;;;;20.75;19.35;;;4.80;93.70;;;;;;4998143;28;20560;-72
2021/11/21 06:21:25;;;;;;;20.73;19.25;;;4.90;93.50;;;;;;5008221;28;20751;-72
2021/11/21 06:23:52;;;;;;;21.20;19.80;;;5.00;93.10;;;;;;5004621;28;20277;-71
2021/11/21 06:26:20;;;;;;;23.08;21.48;;;5.00;92.00;;;;;;5006716;28;20206;-71
2021/11/21 06:28:47;;;;;;;22.17;20.67;;;4.90;92.30;;;;;;5003606;28;20212;-72
2021/11/21 06:31:14;;;;;;;22.17;20.65;;;4.90;92.50;;;;;;5004637;28;20257;-72
2021/11/21 06:33:41;;;;;;;799.53;96.38;;;4.90;94.90;;;;;;4998180;28;20309;-72
2021/11/21 06:36:08;;;;;;;23.70;21.90;;;4.90;96.00;;;;;;5007974;28;20285;-72
2021/11/21 06:38:37;;;;;;;29.05;22.13;;;4.90;94.80;;;;;;5006504;28;20285;-72
2021/11/21 06:41:04;;;;;;;257.13;43.83;;;5.10;93.80;;;;;;5003544;28;20682;-72
2021/11/21 06:43:31;;;;;;;22.08;20.45;;;5.10;96.80;;;;;;5002837;28;20241;-72
2021/11/21 06:45:58;;;;;;;22.77;21.17;;;5.10;93.00;;;;;;5006294;28;20273;-72
2021/11/21 06:48:25;;;;;;;21.70;20.35;;;4.90;92.30;;;;;;5005707;28;20613;-71
2021/11/21 06:50:53;;;;;;;22.70;21.13;;;4.80;92.40;;;;;;5006029;28;20226;-71
2021/11/21 06:53:20;;;;;;;22.83;21.23;;;4.80;92.50;;;;;;5006307;28;20222;-72
2021/11/21 06:55:49;;;;;;;58.80;24.77;;;4.80;92.50;;;;;;5010403;28;20306;-71
2021/11/21 06:58:17;;;;;;;21.92;20.42;;;4.70;93.50;;;;;;5002506;28;20233;-72
2021/11/21 07:00:44;;;;;;;23.55;21.65;;;4.80;96.50;;;;;;5010734;28;20205;-72
2021/11/21 07:03:11;;;;;;;22.27;20.77;;;4.90;95.40;;;;;;5008322;28;20236;-72
2021/11/21 07:05:38;;;;;;;20.92;19.55;;;4.90;94.00;;;;;;5002220;28;20226;-72
2021/11/21 07:08:06;;;;;;;22.85;21.15;;;4.90;94.00;;;;;;5010762;28;20289;-72
2021/11/21 07:10:33;;;;;;;25.60;23.88;;;4.70;93.30;;;;;;5008557;28;20274;-72
2021/11/21 07:13:03;;;;;;;22.30;20.60;;;4.70;93.80;;;;;;5007253;28;20970;-71
2021/11/21 07:15:31;;;;;;;22.15;20.65;;;4.80;93.50;;;;;;5005978;28;20224;-72
2021/11/21 07:17:58;;;;;;;21.88;20.38;;;4.90;93.40;;;;;;5005620;28;20608;-72
2021/11/21 07:20:25;;;;;;;22.60;20.90;;;5.00;92.50;;;;;;5009763;28;20238;-72
2021/11/21 07:22:53;;;;;;;23.73;22.13;;;5.00;92.50;;;;;;5003694;28;20241;-72
2021/11/21 07:25:22;;;;;;;23.65;21.85;;;5.00;92.00;;;;;;5008545;28;20341;-72
2021/11/21 07:27:49;;;;;;;22.95;21.27;;;5.00;91.60;;;;;;5008692;28;20241;-72
2021/11/21 07:30:20;;;;;;;25.05;23.20;;;4.90;91.80;;;;;;5010085;28;20753;-72
2021/11/21 07:32:48;;;;;;;22.70;21.17;;;4.80;92.30;;;;;;5001498;28;20308;-71
2021/11/21 07:35:17;;;;;;;23.50;21.98;;;4.80;92.50;;;;;;5006570;28;20315;-72
2021/11/21 07:37:45;;;;;;;23.25;21.75;;;4.80;92.90;;;;;;5005746;28;20209;-72
2021/11/21 07:40:13;;;;;;;24.13;22.23;;;4.80;93.10;;;;;;5005742;28;20286;-72
2021/11/21 07:42:41;;;;;;;23.00;21.40;;;4.90;93.50;;;;;;5001804;28;20504;-72
2021/11/21 07:45:10;;;;;;;25.80;23.85;;;5.00;93.20;;;;;;5003738;28;20293;-72
2021/11/21 07:47:40;;;;;;;24.85;23.08;;;5.00;92.60;;;;;;5009313;28;20202;-72
2021/11/21 07:50:07;;;;;;;23.38;21.67;;;5.00;92.70;;;;;;5008670;28;20206;-73
2021/11/21 07:52:34;;;;;;;23.08;21.48;;;5.00;92.70;;;;;;5005224;28;20240;-73
2021/11/21 07:55:01;;;;;;;22.35;20.75;;;4.90;93.10;;;;;;5008890;28;20669;-72
2021/11/21 07:57:28;;;;;;;25.85;24.05;;;5.00;93.10;;;;;;5007646;28;20213;-71
2021/11/21 07:59:55;;;;;;;23.60;21.70;;;5.00;92.90;;;;;;5008873;28;20285;-71
2021/11/21 08:02:22;;;;;;;1486.10;208.18;;;5.00;92.80;;;;;;5004602;28;20292;-72
2021/11/21 08:04:50;;;;;;;21.70;20.08;;;5.00;98.20;;;;;;5003977;28;20241;-73
2021/11/21 08:07:17;;;;;;;22.50;21.00;;;5.00;96.30;;;;;;5007580;28;20284;-72
2021/11/21 08:09:44;;;;;;;22.77;21.15;;;4.90;94.60;;;;;;5009033;28;20296;-72
2021/11/21 08:12:12;;;;;;;24.00;22.10;;;5.00;94.40;;;;;;5008604;28;20272;-72
2021/11/21 08:14:39;;;;;;;24.50;22.83;;;4.90;93.90;;;;;;5008673;28;20221;-73
2021/11/21 08:17:06;;;;;;;23.73;22.00;;;4.80;94.60;;;;;;5003735;28;20557;-71
2021/11/21 08:19:33;;;;;;;23.10;21.38;;;4.80;95.10;;;;;;5005187;28;20288;-72
2021/11/21 08:22:02;;;;;;;437.60;61.33;;;4.90;94.80;;;;;;5007275;28;20282;-72
2021/11/21 08:24:29;;;;;;;27.95;25.25;;;5.00;96.70;;;;;;5004675;28;20228;-73
2021/11/21 08:26:56;;;;;;;31.13;28.42;;;5.10;95.60;;;;;;5004028;28;20205;-73
2021/11/21 08:29:23;;;;;;;30.73;28.00;;;5.10;94.20;;;;;;5008352;28;20234;-73
2021/11/21 08:31:52;;;;;;;33.55;30.55;;;4.90;94.50;;;;;;5007855;28;20361;-74
2021/11/21 08:34:19;;;;;;;40.13;31.70;;;4.80;95.10;;;;;;5005190;28;21054;-74
2021/11/21 08:36:46;;;;;;;31.67;28.88;;;4.80;95.40;;;;;;5002326;28;20321;-70
2021/11/21 08:39:15;;;;;;;32.92;29.85;;;4.70;95.60;;;;;;5008219;28;20289;-72
2021/11/21 08:41:41;;;;;;;33.53;30.30;;;4.90;95.30;;;;;;5007978;28;20281;-71
2021/11/21 08:44:08;;;;;;;34.70;31.45;;;5.00;94.80;;;;;;5003194;28;20301;-71
2021/11/21 08:46:36;;;;;;;34.15;30.95;;;4.90;94.30;;;;;;5008570;28;20277;-71
2021/11/21 08:49:03;;;;;;;32.80;29.88;;;4.70;95.20;;;;;;5005690;28;20750;-73
2021/11/21 08:51:30;;;;;;;31.83;28.95;;;4.50;95.50;;;;;;4994257;28;20229;-73
2021/11/21 08:53:57;;;;;;;32.80;29.67;;;4.50;95.30;;;;;;5001313;28;20220;-73
2021/11/21 08:56:25;;;;;;;33.40;30.02;;;4.50;95.60;;;;;;5007070;28;20686;-73
2021/11/21 08:58:53;;;;;;;33.03;29.92;;;4.60;95.00;;;;;;5008874;28;20281;-73
2021/11/21 09:01:20;;;;;;;34.08;30.63;;;4.60;95.30;;;;;;5006474;28;20577;-73
2021/11/21 09:03:47;;;;;;;33.08;29.85;;;4.80;95.10;;;;;;5008729;28;20707;-73
2021/11/21 09:06:14;;;;;;;34.50;30.88;;;4.80;94.30;;;;;;5008368;28;20268;-73
2021/11/21 09:08:41;;;;;;;32.30;29.48;;;4.90;94.30;;;;;;5007259;28;20284;-74
2021/11/21 09:11:08;;;;;;;30.90;28.08;;;4.90;94.00;;;;;;5008371;28;20240;-73
2021/11/21 09:13:37;;;;;;;30.55;27.95;;;5.00;93.70;;;;;;5002476;28;20218;-73
2021/11/21 09:16:05;;;;;;;31.80;28.75;;;5.00;93.40;;;;;;5006832;28;20214;-73
2021/11/21 09:18:32;;;;;;;29.17;26.77;;;5.10;93.10;;;;;;5002861;28;20230;-71
2021/11/21 09:21:00;;;;;;;29.80;27.30;;;5.20;92.10;;;;;;5008042;28;20321;-71
2021/11/21 09:23:27;;;;;;;30.92;27.98;;;5.30;91.30;;;;;;5003614;28;20257;-71
2021/11/21 09:25:54;;;;;;;31.17;28.30;;;5.20;91.10;;;;;;5008277;28;20297;-71
2021/11/21 09:28:22;;;;;;;30.65;28.08;;;5.10;92.20;;;;;;5005807;28;20667;-70
2021/11/21 09:30:50;;;;;;;29.02;26.85;;;5.00;92.40;;;;;;5009905;28;20264;-72
2021/11/21 09:33:17;;;;;;;27.00;24.90;;;5.00;91.30;;;;;;5004224;28;20466;-70
2021/11/21 09:35:45;;;;;;;31.13;28.08;;;5.00;91.60;;;;;;5007816;28;20313;-72
2021/11/21 09:38:12;;;;;;;25.90;23.83;;;5.10;92.00;;;;;;5005105;28;20502;-70
2021/11/21 09:40:39;;;;;;;28.92;26.67;;;5.20;91.40;;;;;;5008605;28;20230;-70
2021/11/21 09:43:06;;;;;;;26.55;24.33;;;5.20;91.20;;;;;;5007249;28;20317;-70
2021/11/21 09:45:34;;;;;;;27.35;25.20;;;5.40;90.60;;;;;;5005376;28;20668;-71
2021/11/21 09:48:04;;;;;;;27.85;25.55;;;5.30;89.90;;;;;;5006793;28;20198;-72
2021/11/21 09:50:32;;;;;;;27.85;25.63;;;5.40;90.00;;;;;;5008563;28;20197;-72
2021/11/21 09:52:59;;;;;;;26.30;24.10;;;5.30;89.70;;;;;;5006418;28;20284;-71
2021/11/21 09:55:27;;;;;;;28.30;26.13;;;5.20;90.50;;;;;;5007224;28;20707;-72
2021/11/21 09:57:54;;;;;;;26.55;24.50;;;5.00;90.90;;;;;;5003925;28;20699;-73
2021/11/21 10:00:23;;;;;;;26.33;24.23;;;5.20;91.30;;;;;;5009027;28;20742;-73
2021/11/21 10:02:59;;;;;;;28.38;26.25;;;5.30;90.40;;;;;;5001941;28;20210;-73
2021/11/21 10:05:29;;;;;;;26.27;24.17;;;5.30;90.20;;;;;;5008527;28;20205;-72
2021/11/21 10:08:07;;;;;;;27.00;24.92;;;5.40;90.50;;;;;;5005154;28;20190;-71
2021/11/21 10:10:37;;;;;;;25.48;23.45;;;5.40;90.20;;;;;;5003785;28;20202;-72
2021/11/21 10:13:04;;;;;;;24.83;23.02;;;5.50;90.30;;;;;;5003055;28;20304;-71
2021/11/21 10:15:31;;;;;;;24.08;22.05;;;5.60;90.10;;;;;;5008159;28;20627;-71
2021/11/21 10:17:58;;;;;;;27.33;25.13;;;5.80;89.60;;;;;;5004392;28;20226;-72
2021/11/21 10:20:29;;;;;;;27.77;25.67;;;5.90;88.10;;;;;;5007612;28;20202;-72
2021/11/21 10:23:03;;;;;;;25.65;23.95;;;5.70;88.10;;;;;;5005881;28;20226;-72
2021/11/21 10:25:47;;;;;;;26.75;24.85;;;5.60;88.20;;;;;;5008239;28;20209;-72
2021/11/21 10:28:20;;;;;;;26.15;24.25;;;5.50;88.90;;;;;;5005233;28;20340;-72
2021/11/21 10:31:10;;;;;;;27.20;25.20;;;5.50;88.90;;;;;;5005196;28;20615;-72
2021/11/21 10:33:39;;;;;;;25.48;23.75;;;5.40;88.50;;;;;;5005546;28;20293;-72
2021/11/21 10:36:10;;;;;;;24.10;22.33;;;5.30;89.20;;;;;;5007008;28;20273;-72
2021/11/21 10:38:41;;;;;;;26.27;24.30;;;5.40;89.20;;;;;;5003174;28;20202;-72
2021/11/21 10:41:11;;;;;;;31.02;28.70;;;5.50;89.20;;;;;;5005264;28;20292;-72
2021/11/21 10:43:48;;;;;;;27.60;25.40;;;5.70;89.10;;;;;;4999580;28;20341;-72
2021/11/21 10:46:30;;;;;;;27.00;24.80;;;5.90;88.70;;;;;;5006816;28;20525;-70
2021/11/21 10:49:17;;;;;;;25.70;23.77;;;6.00;88.00;;;;;;5007667;28;20280;-71
2021/11/21 10:51:45;;;;;;;26.27;24.17;;;6.00;87.20;;;;;;5005361;28;20244;-71
2021/11/21 10:54:21;;;;;;;27.50;25.35;;;5.90;88.00;;;;;;5001956;28;20304;-72
2021/11/21 10:56:50;;;;;;;26.80;24.70;;;6.00;88.40;;;;;;5005402;28;20213;-71
2021/11/21 10:59:36;;;;;;;28.55;26.45;;;6.00;88.20;;;;;;5007904;28;20230;-71
2021/11/21 11:02:05;;;;;;;26.33;24.17;;;5.80;88.30;;;;;;5004789;28;20198;-70
2021/11/21 11:04:32;;;;;;;25.77;23.70;;;5.70;89.50;;;;;;5006516;28;20218;-71
2021/11/21 11:07:11;;;;;;;28.80;26.35;;;5.80;90.70;;;;;;5005634;28;20720;-70
2021/11/21 11:09:38;;;;;;;28.85;26.55;;;5.60;90.00;;;;;;5007974;28;20296;-71
2021/11/21 11:12:07;;;;;;;27.10;24.85;;;5.30;91.20;;;;;;5004977;28;20709;-70
2021/11/21 11:14:34;;;;;;;28.77;26.27;;;5.20;92.10;;;;;;5006953;28;20300;-71
2021/11/21 11:17:01;;;;;;;25.50;23.30;;;5.30;91.70;;;;;;5004673;28;20297;-71
2021/11/21 11:19:32;;;;;;;28.23;25.98;;;5.30;92.30;;;;;;5007456;28;20277;-71
2021/11/21 11:22:00;;;;;;;26.90;24.75;;;5.30;92.10;;;;;;5006062;28;20268;-71
2021/11/21 11:24:29;;;;;;;26.60;24.30;;;5.20;92.10;;;;;;5001388;28;20384;-71
2021/11/21 11:27:02;;;;;;;25.90;23.85;;;5.20;92.30;;;;;;5003620;28;20198;-71
2021/11/21 11:29:35;;;;;;;26.15;24.08;;;5.10;93.00;;;;;;4998597;28;20664;-71
2021/11/21 11:32:24;;;;;;;25.20;23.20;;;5.00;93.10;;;;;;5006569;28;20295;-71
2021/11/21 11:34:52;;;;;;;24.92;22.77;;;4.90;94.00;;;;;;5005232;28;20234;-71
2021/11/21 11:37:43;;;;;;;24.77;22.77;;;4.90;94.20;;;;;;5006720;28;20314;-70
2021/11/21 11:40:39;;;;;;;29.55;24.05;;;5.00;94.80;;;;;;5008788;28;20690;-70
2021/11/21 11:43:33;;;;;;;25.17;23.23;;;5.10;94.50;;;;;;5008151;28;20253;-71
2021/11/21 11:46:03;;;;;;;23.75;22.00;;;5.30;93.40;;;;;;5003929;28;20210;-71
2021/11/21 11:48:35;;;;;;;24.48;22.63;;;5.30;92.80;;;;;;5006391;28;20204;-71
2021/11/21 11:51:05;;;;;;;26.00;23.95;;;5.30;93.30;;;;;;5010826;28;20225;-72
2021/11/21 11:53:39;;;;;;;24.00;22.00;;;5.20;93.20;;;;;;5008209;28;20300;-71
2021/11/21 11:56:15;;;;;;;24.77;22.77;;;5.30;92.90;;;;;;5010026;28;20312;-71
2021/11/21 11:58:48;;;;;;;25.33;23.30;;;5.30;92.40;;;;;;5006630;28;20317;-71
2021/11/21 12:01:48;;;;;;;26.00;23.65;;;5.20;92.70;;;;;;5011308;28;20289;-71
2021/11/21 12:04:47;;;;;;;23.58;21.70;;;5.30;92.90;;;;;;5002050;28;20217;-71
2021/11/21 12:07:33;;;;;;;26.13;23.98;;;5.20;93.80;;;;;;5006108;28;20541;-71
2021/11/21 12:10:10;;;;;;;26.67;24.55;;;5.10;93.60;;;;;;5006003;28;20205;-71
2021/11/21 12:13:01;;;;;;;25.02;22.92;;;5.20;93.50;;;;;;5009554;28;20198;-72
2021/11/21 12:15:35;;;;;;;26.00;24.00;;;5.30;93.60;;;;;;5010948;28;20197;-72
2021/11/21 12:18:04;;;;;;;23.92;21.92;;;5.30;93.00;;;;;;5004091;28;20201;-73
2021/11/21 12:20:58;;;;;;;26.88;24.63;;;5.30;92.90;;;;;;5008597;28;20252;-71
2021/11/21 12:23:57;;;;;;;1766.03;217.45;;;5.40;93.30;;;;;;5004764;28;20214;-71
2021/11/21 12:26:47;;;;;;;26.13;24.17;;;5.50;97.30;;;;;;5002720;28;20317;-72
2021/11/21 12:29:29;;;;;;;24.83;22.92;;;5.70;94.60;;;;;;5007186;28;20202;-75
2021/11/21 12:32:17;;;;;;;23.77;21.95;;;5.90;92.60;;;;;;5007539;28;20639;-70
2021/11/21 12:34:44;;;;;;;24.40;22.55;;;5.80;91.40;;;;;;5008654;28;20292;-71
2021/11/21 12:37:18;;;;;;;28.30;25.85;;;5.80;90.80;;;;;;5005647;28;20225;-72
2021/11/21 12:39:48;;;;;;;24.73;22.83;;;5.80;90.20;;;;;;5005630;28;20237;-73
2021/11/21 12:42:19;;;;;;;24.40;22.40;;;5.70;90.20;;;;;;5005790;28;20202;-73
2021/11/21 12:44:46;;;;;;;23.42;21.73;;;5.60;90.20;;;;;;5003455;28;20628;-73
2021/11/21 12:47:14;;;;;;;25.00;23.20;;;5.50;90.80;;;;;;5006936;28;20190;-73